createdAt,value
2017-12-05T00:00:20.489Z,79.17
2017-12-05T00:02:48.763Z,79.17
2017-12-05T00:05:17.139Z,78.98
2017-12-05T00:07:45.361Z,79.01
2017-12-05T00:10:13.660Z,78.70
2017-12-05T00:12:41.935Z,78.48
2017-12-05T00:15:10.279Z,78.58
2017-12-05T00:17:38.610Z,78.33
2017-12-05T00:20:06.939Z,78.42
2017-12-05T00:22:35.208Z,78.52
2017-12-05T00:25:03.524Z,78.48
2017-12-05T00:27:31.794Z,78.18
2017-12-05T00:30:00.119Z,78.16
2017-12-05T00:32:28.419Z,78.00
2017-12-05T00:34:56.754Z,78.08
2017-12-05T00:37:24.999Z,78.07
2017-12-05T00:39:53.300Z,78.17
2017-12-05T00:42:21.619Z,78.21
2017-12-05T00:44:49.910Z,78.30
2017-12-05T00:47:18.198Z,78.87
2017-12-05T00:49:46.486Z,78.99
2017-12-05T00:52:14.810Z,79.14
2017-12-05T00:54:43.083Z,78.91
2017-12-05T00:57:11.390Z,78.84
2017-12-05T00:59:39.715Z,78.92
2017-12-05T01:02:08.001Z,78.98
2017-12-05T01:04:36.352Z,79.04
2017-12-05T01:07:05.457Z,79.04
2017-12-05T01:09:33.767Z,78.99
2017-12-05T01:12:02.060Z,78.61
2017-12-05T01:14:30.354Z,78.47
2017-12-05T01:16:58.625Z,78.35
2017-12-05T01:19:26.915Z,78.63
2017-12-05T01:21:55.196Z,78.78
2017-12-05T01:24:23.515Z,78.66
2017-12-05T01:26:51.788Z,78.82
2017-12-05T01:29:20.078Z,78.74
2017-12-05T01:31:48.386Z,78.68
2017-12-05T01:34:16.682Z,78.78
2017-12-05T01:36:45.062Z,78.43
2017-12-05T01:39:13.335Z,78.44
2017-12-05T01:41:41.640Z,78.56
2017-12-05T01:44:10.223Z,78.85
2017-12-05T01:46:38.534Z,78.71
2017-12-05T01:49:06.856Z,78.75
2017-12-05T01:51:35.151Z,79.08
2017-12-05T01:54:03.439Z,78.99
2017-12-05T01:56:31.743Z,78.59
2017-12-05T01:59:00.043Z,78.67
2017-12-05T02:01:28.353Z,78.52
2017-12-05T02:03:56.659Z,78.60
2017-12-05T02:06:24.974Z,78.52
2017-12-05T02:08:53.300Z,78.64
2017-12-05T02:11:21.611Z,78.54
2017-12-05T02:13:49.956Z,78.41
2017-12-05T02:16:18.258Z,78.52
2017-12-05T02:18:46.519Z,78.64
2017-12-05T02:21:14.893Z,78.55
2017-12-05T02:23:43.275Z,78.82
2017-12-05T02:26:11.885Z,78.87
2017-12-05T02:28:40.189Z,78.77
2017-12-05T02:31:08.464Z,78.48
2017-12-05T02:33:36.751Z,78.63
2017-12-05T02:36:05.036Z,78.70
2017-12-05T02:38:33.336Z,78.89
2017-12-05T02:41:09.531Z,78.99
2017-12-05T02:43:37.859Z,78.88
2017-12-05T02:46:06.179Z,78.88
2017-12-05T02:48:34.414Z,78.84
2017-12-05T02:51:02.739Z,78.99
2017-12-05T02:53:31.035Z,79.31
2017-12-05T02:55:59.315Z,79.64
2017-12-05T02:58:27.587Z,79.75
2017-12-05T03:00:55.885Z,79.76
2017-12-05T03:03:24.528Z,79.42
2017-12-05T03:05:52.846Z,79.35
2017-12-05T03:08:21.104Z,79.29
2017-12-05T03:10:49.406Z,79.68
2017-12-05T03:13:17.682Z,79.80
2017-12-05T03:15:46.007Z,79.86
2017-12-05T03:18:14.315Z,80.06
2017-12-05T03:20:42.611Z,80.21
2017-12-05T03:23:11.167Z,80.16
2017-12-05T03:25:39.479Z,79.72
2017-12-05T03:28:07.788Z,79.87
2017-12-05T03:30:36.064Z,79.92
2017-12-05T03:33:04.370Z,80.07
2017-12-05T03:35:32.640Z,79.72
2017-12-05T03:38:01.487Z,80.05
2017-12-05T03:40:29.751Z,80.15
2017-12-05T03:42:58.050Z,79.95
2017-12-05T03:45:26.370Z,80.14
2017-12-05T03:47:54.658Z,80.37
2017-12-05T03:50:22.973Z,80.47
2017-12-05T03:52:51.304Z,80.44
2017-12-05T03:55:19.576Z,80.74
2017-12-05T03:57:47.864Z,80.57
2017-12-05T04:00:16.152Z,80.57
2017-12-05T04:02:44.477Z,80.38
2017-12-05T04:05:12.785Z,80.48
2017-12-05T04:07:41.067Z,80.95
2017-12-05T04:10:09.384Z,81.17
2017-12-05T04:12:37.662Z,81.09
2017-12-05T04:15:05.983Z,81.02
2017-12-05T04:17:34.280Z,80.44
2017-12-05T04:20:02.616Z,80.30
2017-12-05T04:22:30.859Z,80.58
2017-12-05T04:24:59.180Z,80.91
2017-12-05T04:27:27.460Z,81.06
2017-12-05T04:29:55.751Z,81.67
2017-12-05T04:32:24.040Z,81.74
2017-12-05T04:34:52.328Z,81.93
2017-12-05T04:37:20.623Z,81.83
2017-12-05T04:39:48.935Z,82.40
2017-12-05T04:42:17.235Z,82.62
2017-12-05T04:44:45.507Z,82.73
2017-12-05T04:47:13.794Z,83.13
2017-12-05T04:49:42.077Z,83.12
2017-12-05T04:52:10.358Z,82.95
2017-12-05T04:54:38.630Z,83.10
2017-12-05T04:57:06.920Z,83.23
2017-12-05T04:59:35.183Z,83.51
2017-12-05T05:02:03.504Z,83.86
2017-12-05T05:04:31.827Z,84.10
2017-12-05T05:07:00.150Z,83.87
2017-12-05T05:09:28.504Z,83.38
2017-12-05T05:11:57.299Z,83.28
2017-12-05T05:14:25.604Z,82.92
2017-12-05T05:16:53.870Z,83.31
2017-12-05T05:19:22.220Z,83.13
2017-12-05T05:21:50.478Z,83.27
2017-12-05T05:24:18.800Z,83.21
2017-12-05T05:26:47.058Z,82.80
2017-12-05T05:29:15.457Z,82.71
2017-12-05T05:31:43.791Z,82.57
2017-12-05T05:34:12.045Z,82.27
2017-12-05T05:36:40.382Z,82.45
2017-12-05T05:39:08.631Z,82.43
2017-12-05T05:41:36.932Z,82.85
2017-12-05T05:44:05.507Z,83.16
2017-12-05T05:46:33.819Z,82.99
2017-12-05T05:49:02.096Z,82.40
2017-12-05T05:51:30.421Z,82.06
2017-12-05T05:53:58.683Z,82.04
2017-12-05T05:56:27.021Z,81.66
2017-12-05T05:58:55.688Z,81.50
2017-12-05T06:01:24.031Z,81.57
2017-12-05T06:03:52.401Z,81.73
2017-12-05T06:06:20.805Z,81.76
2017-12-05T06:08:49.179Z,82.12
2017-12-05T06:11:17.484Z,82.28
2017-12-05T06:13:45.812Z,82.37
2017-12-05T06:16:14.100Z,81.83
2017-12-05T06:18:42.392Z,81.70
2017-12-05T06:21:10.674Z,81.83
2017-12-05T06:23:39.185Z,81.80
2017-12-05T06:26:07.470Z,82.11
2017-12-05T06:28:35.699Z,81.88
2017-12-05T06:31:04.013Z,81.85
2017-12-05T06:33:32.292Z,81.88
2017-12-05T06:36:00.587Z,81.81
2017-12-05T06:38:28.859Z,81.73
2017-12-05T06:40:57.171Z,81.37
2017-12-05T06:43:25.410Z,80.94
2017-12-05T06:45:53.767Z,81.10
2017-12-05T06:48:22.051Z,81.03
2017-12-05T06:50:50.361Z,81.42
2017-12-05T06:53:18.674Z,81.54
2017-12-05T06:55:46.975Z,81.19
2017-12-05T06:58:15.264Z,81.42
2017-12-05T07:00:43.568Z,81.49
2017-12-05T07:03:11.873Z,81.22
2017-12-05T07:05:40.144Z,81.18
2017-12-05T07:08:08.440Z,81.31
2017-12-05T07:10:36.706Z,80.95
2017-12-05T07:13:04.992Z,80.86
2017-12-05T07:15:33.369Z,80.67
2017-12-05T07:18:01.632Z,81.02
2017-12-05T07:20:29.895Z,81.09
2017-12-05T07:22:58.198Z,81.06
2017-12-05T07:25:26.459Z,81.19
2017-12-05T07:27:54.958Z,81.03
2017-12-05T07:30:23.200Z,80.99
2017-12-05T07:32:51.503Z,80.86
2017-12-05T07:35:19.803Z,80.60
2017-12-05T07:37:48.115Z,80.59
2017-12-05T07:40:16.412Z,80.80
2017-12-05T07:42:44.693Z,80.89
2017-12-05T07:45:12.990Z,80.70
2017-12-05T07:47:41.265Z,80.44
2017-12-05T07:50:09.632Z,80.57
2017-12-05T07:52:37.900Z,80.73
2017-12-05T07:55:06.262Z,81.01
2017-12-05T07:57:34.575Z,81.01
2017-12-05T08:00:02.878Z,80.67
2017-12-05T08:02:31.154Z,80.26
2017-12-05T08:04:59.455Z,80.10
2017-12-05T08:07:27.744Z,80.00
2017-12-05T08:09:56.039Z,79.83
2017-12-05T08:12:24.403Z,79.74
2017-12-05T08:14:52.739Z,79.69
2017-12-05T08:17:21.041Z,79.28
2017-12-05T08:19:49.505Z,79.14
2017-12-05T08:22:17.777Z,79.04
2017-12-05T08:24:46.074Z,79.32
2017-12-05T08:27:14.374Z,79.00
2017-12-05T08:29:42.651Z,78.41
2017-12-05T08:32:11.046Z,78.32
2017-12-05T08:34:39.404Z,78.58
2017-12-05T08:37:08.615Z,78.45
2017-12-05T08:39:36.951Z,78.05
2017-12-05T08:42:05.263Z,78.22
2017-12-05T08:44:33.555Z,78.34
2017-12-05T08:47:02.534Z,78.77
2017-12-05T08:49:31.000Z,78.55
2017-12-05T08:51:59.251Z,78.55
2017-12-05T08:54:27.561Z,78.14
2017-12-05T08:56:55.827Z,77.60
2017-12-05T08:59:24.115Z,78.03
2017-12-05T09:01:52.426Z,78.44
2017-12-05T09:04:21.050Z,78.75
2017-12-05T09:06:49.397Z,78.42
2017-12-05T09:09:17.715Z,77.95
2017-12-05T09:11:46.006Z,77.67
2017-12-05T09:14:14.337Z,77.47
2017-12-05T09:16:42.629Z,77.24
2017-12-05T09:19:11.014Z,77.12
2017-12-05T09:21:39.334Z,77.63
2017-12-05T09:24:07.644Z,77.67
2017-12-05T09:26:35.947Z,77.03
2017-12-05T09:29:04.966Z,77.73
2017-12-05T09:31:33.276Z,77.73
2017-12-05T09:34:01.628Z,77.47
2017-12-05T09:36:29.870Z,77.79
2017-12-05T09:38:58.136Z,77.47
2017-12-05T09:41:26.787Z,77.49
2017-12-05T09:43:55.068Z,77.10
2017-12-05T09:46:23.372Z,76.55
2017-12-05T09:48:51.630Z,76.67
2017-12-05T09:51:19.923Z,76.76
2017-12-05T09:53:48.251Z,76.53
2017-12-05T09:56:16.621Z,76.56
2017-12-05T09:58:44.936Z,76.68
2017-12-05T10:01:13.175Z,76.26
2017-12-05T10:03:41.465Z,76.47
2017-12-05T10:06:09.731Z,76.52
2017-12-05T10:08:38.031Z,76.33
2017-12-05T10:11:06.295Z,76.28
2017-12-05T10:13:34.588Z,76.07
2017-12-05T10:16:02.905Z,75.59
2017-12-05T10:18:31.239Z,75.13
2017-12-05T10:20:59.592Z,75.22
2017-12-05T10:23:27.855Z,75.11
2017-12-05T10:25:56.191Z,75.29
2017-12-05T10:28:24.495Z,75.17
2017-12-05T10:30:52.824Z,75.18
2017-12-05T10:33:21.145Z,75.14
2017-12-05T10:35:49.457Z,75.08
2017-12-05T10:38:17.751Z,75.24
2017-12-05T10:40:46.064Z,75.46
2017-12-05T10:43:14.379Z,75.10
2017-12-05T10:45:42.681Z,75.27
2017-12-05T10:48:10.958Z,75.47
2017-12-05T10:50:39.269Z,74.89
2017-12-05T10:53:07.860Z,74.93
2017-12-05T10:55:36.149Z,74.86
2017-12-05T10:58:04.450Z,74.90
2017-12-05T11:00:32.719Z,75.14
2017-12-05T11:03:01.022Z,74.86
2017-12-05T11:05:29.302Z,75.42
2017-12-05T11:07:57.634Z,75.45
2017-12-05T11:10:25.926Z,75.55
2017-12-05T11:12:54.259Z,75.26
2017-12-05T11:15:22.537Z,75.41
2017-12-05T11:17:50.812Z,75.49
2017-12-05T11:20:19.119Z,75.87
2017-12-05T11:22:47.393Z,76.40
2017-12-05T11:25:15.712Z,76.29
2017-12-05T11:27:43.988Z,76.21
2017-12-05T11:30:12.278Z,76.52
2017-12-05T11:32:40.558Z,76.42
2017-12-05T11:35:08.880Z,75.99
2017-12-05T11:37:37.375Z,75.93
2017-12-05T11:40:05.742Z,75.85
2017-12-05T11:42:33.984Z,75.77
2017-12-05T11:45:02.294Z,75.36
2017-12-05T11:47:30.589Z,75.67
2017-12-05T11:49:58.922Z,75.68
2017-12-05T11:52:27.212Z,75.76
2017-12-05T11:54:55.668Z,75.99
2017-12-05T11:57:24.017Z,76.20
2017-12-05T11:59:52.300Z,75.71
2017-12-05T12:02:20.623Z,75.44
2017-12-05T12:04:48.907Z,75.80
2017-12-05T12:07:17.376Z,76.13
2017-12-05T12:09:45.655Z,75.87
2017-12-05T12:12:13.951Z,75.92
2017-12-05T12:14:43.161Z,75.39
2017-12-05T12:17:11.462Z,74.98
2017-12-05T12:19:40.177Z,75.32
2017-12-05T12:22:08.526Z,75.48
2017-12-05T12:24:36.847Z,75.82
2017-12-05T12:27:05.125Z,76.08
2017-12-05T12:29:33.395Z,76.47
2017-12-05T12:32:01.858Z,76.53
2017-12-05T12:34:30.104Z,76.05
2017-12-05T12:36:58.415Z,75.63
2017-12-05T12:39:26.734Z,75.72
2017-12-05T12:41:55.016Z,75.66
2017-12-05T12:44:23.318Z,75.06
2017-12-05T12:46:51.614Z,74.94
2017-12-05T12:49:19.895Z,74.67
2017-12-05T12:51:48.176Z,74.84
2017-12-05T12:54:16.824Z,75.11
2017-12-05T12:56:45.105Z,75.16
2017-12-05T12:59:13.447Z,75.29
2017-12-05T13:01:41.780Z,75.12
2017-12-05T13:04:10.980Z,75.14
2017-12-05T13:06:39.315Z,75.10
2017-12-05T13:09:08.534Z,75.09
2017-12-05T13:11:36.791Z,75.21
2017-12-05T13:14:05.155Z,75.29
2017-12-05T13:16:33.501Z,75.70
2017-12-05T13:19:01.852Z,75.36
2017-12-05T13:21:30.207Z,75.33
2017-12-05T13:23:58.514Z,75.12
2017-12-05T13:26:26.815Z,75.53
2017-12-05T13:28:55.188Z,75.76
2017-12-05T13:31:24.349Z,75.82
2017-12-05T13:33:52.655Z,75.78
2017-12-05T13:36:21.004Z,75.76
2017-12-05T13:38:49.294Z,75.72
2017-12-05T13:41:17.659Z,75.62
2017-12-05T13:43:46.000Z,75.77
2017-12-05T13:46:14.346Z,75.66
2017-12-05T13:48:42.686Z,75.52
2017-12-05T13:51:11.115Z,75.63
2017-12-05T13:53:39.409Z,75.91
2017-12-05T13:56:07.692Z,75.72
2017-12-05T13:58:37.033Z,76.03
2017-12-05T14:01:05.575Z,75.82
2017-12-05T14:03:33.955Z,75.45
2017-12-05T14:06:02.258Z,75.32
2017-12-05T14:08:30.560Z,75.18
2017-12-05T14:10:58.904Z,75.00
2017-12-05T14:13:27.292Z,75.58
2017-12-05T14:15:56.034Z,75.78
2017-12-05T14:18:24.328Z,75.73
2017-12-05T14:20:52.621Z,75.34
2017-12-05T14:23:20.990Z,75.45
2017-12-05T14:25:49.244Z,75.49
2017-12-05T14:28:18.212Z,75.69
2017-12-05T14:30:46.532Z,75.60
2017-12-05T14:33:14.819Z,75.35
2017-12-05T14:35:43.192Z,74.96
2017-12-05T14:38:12.491Z,75.53
2017-12-05T14:40:40.894Z,75.57
2017-12-05T14:43:09.192Z,74.97
2017-12-05T14:45:38.428Z,75.14
2017-12-05T14:48:06.805Z,75.09
2017-12-05T14:50:35.087Z,75.17
2017-12-05T14:53:03.384Z,74.99
2017-12-05T14:55:31.797Z,75.17
2017-12-05T14:58:00.302Z,75.07
2017-12-05T15:00:29.500Z,74.97
2017-12-05T15:02:57.789Z,75.03
2017-12-05T15:05:26.089Z,75.21
2017-12-05T15:07:55.021Z,75.18
2017-12-05T15:10:23.355Z,75.18
2017-12-05T15:12:51.689Z,75.45
2017-12-05T15:15:20.035Z,75.14
2017-12-05T15:17:48.331Z,75.20
2017-12-05T15:20:16.643Z,75.32
2017-12-05T15:22:44.947Z,75.08
2017-12-05T15:25:14.445Z,74.77
2017-12-05T15:27:42.740Z,74.97
2017-12-05T15:30:11.061Z,74.99
2017-12-05T15:32:39.428Z,74.93
2017-12-05T15:35:07.755Z,74.54
2017-12-05T15:37:36.076Z,74.04
2017-12-05T15:40:05.428Z,74.41
2017-12-05T15:42:33.751Z,74.57
2017-12-05T15:45:02.051Z,74.45
2017-12-05T15:47:30.363Z,74.24
2017-12-05T15:49:58.733Z,74.46
2017-12-05T15:52:26.990Z,74.62
2017-12-05T15:54:55.331Z,74.52
2017-12-05T15:57:23.820Z,74.69
2017-12-05T15:59:52.128Z,74.71
2017-12-05T16:02:20.986Z,75.20
2017-12-05T16:04:49.314Z,75.28
2017-12-05T16:07:17.637Z,75.24
2017-12-05T16:09:45.963Z,75.08
2017-12-05T16:12:14.299Z,74.71
2017-12-05T16:14:42.603Z,74.54
2017-12-05T16:17:10.888Z,74.28
2017-12-05T16:19:39.294Z,74.50
2017-12-05T16:22:07.587Z,74.40
2017-12-05T16:24:35.888Z,74.63
2017-12-05T16:27:04.863Z,74.72
2017-12-05T16:29:33.142Z,74.60
2017-12-05T16:32:01.422Z,74.44
2017-12-05T16:34:29.753Z,74.57
2017-12-05T16:36:58.034Z,74.86
2017-12-05T16:39:26.866Z,74.98
2017-12-05T16:41:55.180Z,74.98
2017-12-05T16:44:23.461Z,74.80
2017-12-05T16:46:51.811Z,74.76
2017-12-05T16:49:20.106Z,74.97
2017-12-05T16:51:48.408Z,75.17
2017-12-05T16:54:16.723Z,75.14
2017-12-05T16:56:45.055Z,75.30
2017-12-05T16:59:13.454Z,75.39
2017-12-05T17:01:41.791Z,75.21
2017-12-05T17:04:10.130Z,75.19
2017-12-05T17:06:38.709Z,75.20
2017-12-05T17:09:07.041Z,75.12
2017-12-05T17:11:35.334Z,74.92
2017-12-05T17:14:04.379Z,75.09
2017-12-05T17:16:32.976Z,75.15
2017-12-05T17:19:01.298Z,75.13
2017-12-05T17:21:29.651Z,75.32
2017-12-05T17:23:58.203Z,75.55
2017-12-05T17:26:26.463Z,75.67
2017-12-05T17:28:54.808Z,75.68
2017-12-05T17:31:23.104Z,75.70
2017-12-05T17:33:51.450Z,75.94
2017-12-05T17:36:19.782Z,75.73
2017-12-05T17:38:48.114Z,75.55
2017-12-05T17:41:16.550Z,75.31
2017-12-05T17:43:44.893Z,75.49
2017-12-05T17:46:13.172Z,75.45
2017-12-05T17:48:41.552Z,75.37
2017-12-05T17:51:09.861Z,75.41
2017-12-05T17:53:38.172Z,75.46
2017-12-05T17:56:06.618Z,75.58
2017-12-05T17:58:34.899Z,75.87
2017-12-05T18:01:03.311Z,75.92
2017-12-05T18:03:32.548Z,75.79
2017-12-05T18:06:00.839Z,75.68
2017-12-05T18:08:29.184Z,75.73
2017-12-05T18:10:57.449Z,75.70
2017-12-05T18:13:25.791Z,75.82
2017-12-05T18:15:54.143Z,75.92
2017-12-05T18:18:22.471Z,75.75
2017-12-05T18:20:50.791Z,75.58
2017-12-05T18:23:20.104Z,75.48
2017-12-05T18:25:48.368Z,75.49
2017-12-05T18:28:16.659Z,75.46
2017-12-05T18:30:45.017Z,75.36
2017-12-05T18:35:47.775Z,75.12
2017-12-05T18:38:16.061Z,75.47
2017-12-05T18:40:44.465Z,75.36
2017-12-05T18:43:12.746Z,75.17
2017-12-05T18:45:41.093Z,74.87
2017-12-05T18:48:09.384Z,74.70
2017-12-05T18:50:37.675Z,74.96
2017-12-05T18:53:05.955Z,75.02
2017-12-05T18:55:34.277Z,74.84
2017-12-05T18:58:02.599Z,75.33
2017-12-05T19:00:30.888Z,75.10
2017-12-05T19:02:59.276Z,74.85
2017-12-05T19:05:27.495Z,74.91
2017-12-05T19:07:55.796Z,74.25
2017-12-05T19:10:24.073Z,74.32
2017-12-05T19:12:52.383Z,74.21
2017-12-05T19:15:20.851Z,74.74
2017-12-05T19:17:49.648Z,74.58
2017-12-05T19:20:17.927Z,74.51
2017-12-05T19:22:46.437Z,74.55
2017-12-05T19:25:14.778Z,74.37
2017-12-05T19:27:43.091Z,74.56
2017-12-05T19:30:11.445Z,74.49
2017-12-05T19:32:39.719Z,74.89
2017-12-05T19:35:08.062Z,74.57
2017-12-05T19:37:36.422Z,74.65
2017-12-05T19:40:04.799Z,74.27
2017-12-05T19:42:33.055Z,74.29
2017-12-05T19:45:01.415Z,74.34
2017-12-05T19:47:29.701Z,74.75
2017-12-05T19:49:58.007Z,74.40
2017-12-05T19:52:26.309Z,74.20
2017-12-05T19:54:54.618Z,73.78
2017-12-05T19:57:23.136Z,73.39
2017-12-05T19:59:51.477Z,73.51
2017-12-05T20:02:19.840Z,73.68
2017-12-05T20:04:48.142Z,73.37
2017-12-05T20:07:16.448Z,73.82
2017-12-05T20:09:44.765Z,74.41
2017-12-05T20:12:13.060Z,74.73
2017-12-05T20:14:41.388Z,74.40
2017-12-05T20:17:09.803Z,74.58
2017-12-05T20:19:38.135Z,74.80
2017-12-05T20:22:06.469Z,74.89
2017-12-05T20:24:34.786Z,75.08
2017-12-05T20:27:03.117Z,75.02
2017-12-05T20:29:31.435Z,74.79
2017-12-05T20:31:59.766Z,74.66
2017-12-05T20:34:28.113Z,74.69
2017-12-05T20:36:56.407Z,74.33
2017-12-05T20:39:25.709Z,74.69
2017-12-05T20:41:54.055Z,74.75
2017-12-05T20:44:22.504Z,74.85
2017-12-05T20:46:50.858Z,74.39
2017-12-05T20:49:19.191Z,74.77
2017-12-05T20:51:47.479Z,74.90
2017-12-05T20:54:16.324Z,74.78
2017-12-05T20:56:44.799Z,74.82
2017-12-05T20:59:13.139Z,75.19
2017-12-05T21:01:41.427Z,74.99
2017-12-05T21:04:09.828Z,74.93
2017-12-05T21:06:38.170Z,74.95
2017-12-05T21:09:06.894Z,74.96
2017-12-05T21:11:35.181Z,74.78
2017-12-05T21:14:03.516Z,75.19
2017-12-05T21:16:31.851Z,75.32
2017-12-05T21:19:00.151Z,75.64
2017-12-05T21:21:28.450Z,75.36
2017-12-05T21:23:56.781Z,75.19
2017-12-05T21:26:25.094Z,75.45
2017-12-05T21:28:53.424Z,75.55
2017-12-05T21:31:21.709Z,75.58
2017-12-05T21:33:49.984Z,75.55
2017-12-05T21:36:18.340Z,75.49
2017-12-05T21:38:46.660Z,75.46
2017-12-05T21:41:14.994Z,75.36
2017-12-05T21:43:43.300Z,75.60
2017-12-05T21:46:11.619Z,75.48
2017-12-05T21:48:39.960Z,75.11
2017-12-05T21:51:08.843Z,75.39
2017-12-05T21:53:37.154Z,75.33
2017-12-05T21:56:05.749Z,75.08
2017-12-05T21:58:34.056Z,74.76
2017-12-05T22:01:02.339Z,75.23
2017-12-05T22:03:30.639Z,75.35
2017-12-05T22:05:58.917Z,75.35
2017-12-05T22:08:27.229Z,75.08
2017-12-05T22:10:55.507Z,75.12
2017-12-05T22:13:23.824Z,75.17
2017-12-05T22:15:52.159Z,74.92
2017-12-05T22:18:21.033Z,75.02
2017-12-05T22:20:49.315Z,74.44
2017-12-05T22:23:17.599Z,74.70
2017-12-05T22:25:45.940Z,74.76
2017-12-05T22:28:14.234Z,74.87
2017-12-05T22:30:42.548Z,74.87
2017-12-05T22:33:10.823Z,74.59
2017-12-05T22:35:39.751Z,74.71
2017-12-05T22:38:08.041Z,74.79
2017-12-05T22:40:36.351Z,75.02
2017-12-05T22:43:04.723Z,75.79
2017-12-05T22:45:33.024Z,75.77
2017-12-05T22:48:01.319Z,75.95
2017-12-05T22:50:29.587Z,75.93
2017-12-05T22:52:57.898Z,75.34
2017-12-05T22:55:26.198Z,75.43
2017-12-05T22:57:54.499Z,75.63
2017-12-05T23:00:22.776Z,75.60
2017-12-05T23:02:51.130Z,75.68
2017-12-05T23:05:19.399Z,75.72
2017-12-05T23:07:47.726Z,75.79
2017-12-05T23:10:15.991Z,75.85
2017-12-05T23:12:44.325Z,76.18
2017-12-05T23:15:12.998Z,76.13
2017-12-05T23:17:41.320Z,76.48
2017-12-05T23:20:09.657Z,76.19
2017-12-05T23:22:37.947Z,75.98
2017-12-05T23:25:07.094Z,76.31
2017-12-05T23:27:35.412Z,76.67
2017-12-05T23:30:03.699Z,76.41
2017-12-05T23:32:31.975Z,76.15
2017-12-05T23:35:00.327Z,76.09
2017-12-05T23:37:28.589Z,76.41
2017-12-05T23:39:57.004Z,76.12
2017-12-05T23:42:25.279Z,75.89
2017-12-05T23:44:53.559Z,75.56
2017-12-05T23:47:21.877Z,75.33
2017-12-05T23:49:50.131Z,75.47
2017-12-05T23:52:18.690Z,75.19
2017-12-05T23:54:47.022Z,75.66
2017-12-05T23:57:15.306Z,75.91
2017-12-05T23:59:43.585Z,75.93
